Time;durP1;ratioP1;P1;durP2;ratioP2;P2;SDS_P1;SDS_P2;PMS_P1;PMS_P2;Temp;Humidity;BMP_temperature;BMP_pressure;BME280_temperature;BME280_humidity;BME280_pressure;Samples;Min_cycle;Max_cycle;Signal;HPM_P1;HPM_P2
2023/01/09 00:01:09;;;;;;;4.63;2.38;;;6.60;99.90;;;;;;5073538;28;20440;-72
2023/01/09 00:03:35;;;;;;;10.10;3.10;;;6.40;99.90;;;;;;5091466;28;20077;-72
2023/01/09 00:06:00;;;;;;;5.90;2.33;;;6.70;99.90;;;;;;5059246;28;20040;-73
2023/01/09 00:08:26;;;;;;;8.95;2.80;;;6.60;99.90;;;;;;5060578;28;20480;-70
2023/01/09 00:10:51;;;;;;;8.90;3.20;;;6.60;99.90;;;;;;5076707;28;20109;-70
2023/01/09 00:13:17;;;;;;;8.80;3.22;;;6.60;99.90;;;;;;5076784;28;20052;-73
2023/01/09 00:15:43;;;;;;;9.30;3.10;;;6.10;99.90;;;;;;5077165;28;20044;-72
2023/01/09 00:18:09;;;;;;;6.95;3.25;;;6.40;99.90;;;;;;5095063;28;20052;-72
2023/01/09 00:20:35;;;;;;;7.45;2.72;;;6.50;99.90;;;;;;5094961;28;20113;-72
2023/01/09 00:23:01;;;;;;;11.55;3.00;;;6.50;99.90;;;;;;5076505;28;20512;-73
2023/01/09 00:25:26;;;;;;;5.85;2.92;;;6.50;99.90;;;;;;5094607;28;20131;-73
2023/01/09 00:27:52;;;;;;;9.23;3.30;;;6.70;99.90;;;;;;5076903;28;20051;-73
2023/01/09 00:30:18;;;;;;;4.70;2.88;;;6.70;99.90;;;;;;5095107;28;20048;-73
2023/01/09 00:32:43;;;;;;;6.13;3.28;;;6.60;99.90;;;;;;5076540;28;20155;-75
2023/01/09 00:35:14;;;;;;;6.97;2.80;;;6.60;99.90;;;;;;5094731;28;20499;-73
2023/01/09 00:37:40;;;;;;;5.68;3.35;;;6.60;99.90;;;;;;5094730;28;20131;-74
2023/01/09 00:40:06;;;;;;;3.95;2.95;;;6.50;99.90;;;;;;5076235;28;20202;-73
2023/01/09 00:42:35;;;;;;;8.32;3.15;;;6.50;99.90;;;;;;5094582;28;20040;-75
2023/01/09 00:45:04;;;;;;;6.50;2.83;;;6.70;99.90;;;;;;5076564;28;20048;-73
2023/01/09 00:47:32;;;;;;;6.85;3.00;;;6.60;99.90;;;;;;5076186;28;20044;-73
2023/01/09 00:50:02;;;;;;;5.32;3.10;;;6.70;99.90;;;;;;5059930;28;20067;-78
2023/01/09 00:52:34;;;;;;;4.88;2.50;;;6.40;99.90;;;;;;5075546;28;20052;-73
2023/01/09 00:55:01;;;;;;;6.05;3.00;;;6.50;99.90;;;;;;5094128;28;20138;-74
2023/01/09 00:57:27;;;;;;;7.68;2.80;;;6.70;99.90;;;;;;5076597;28;20060;-75
2023/01/09 00:59:53;;;;;;;6.53;2.70;;;6.70;99.90;;;;;;5094588;28;20384;-73
2023/01/09 01:02:19;;;;;;;5.35;2.53;;;6.50;99.90;;;;;;5076335;28;20147;-73
2023/01/09 01:07:38;;;;;;;4.85;2.33;;;6.90;99.90;;;;;;5094424;28;20051;-74
2023/01/09 01:10:18;;;;;;;7.55;2.72;;;6.80;99.90;;;;;;5076072;28;20404;-74
2023/01/09 01:12:45;;;;;;;6.20;2.47;;;6.60;99.90;;;;;;5103670;28;20044;-73
2023/01/09 01:15:12;;;;;;;7.75;2.42;;;6.50;99.90;;;;;;5114351;28;20075;-73
2023/01/09 01:17:39;;;;;;;3.10;2.50;;;6.80;99.90;;;;;;5113780;28;20040;-72
2023/01/09 01:20:08;;;;;;;9.52;2.95;;;6.70;99.90;;;;;;5096143;28;20054;-72
2023/01/09 01:22:34;;;;;;;5.57;2.40;;;6.70;99.90;;;;;;5113892;28;20526;-72
2023/01/09 01:25:00;;;;;;;7.82;2.58;;;6.80;99.90;;;;;;5114151;28;20043;-72
2023/01/09 01:27:27;;;;;;;9.23;2.85;;;6.90;99.90;;;;;;5114089;28;20058;-72
2023/01/09 01:29:52;;;;;;;5.45;2.60;;;6.70;99.90;;;;;;5114051;28;20352;-72
2023/01/09 01:32:18;;;;;;;5.22;2.55;;;6.70;99.90;;;;;;5113958;28;20040;-71
2023/01/09 01:34:44;;;;;;;6.63;3.22;;;6.70;99.90;;;;;;5114022;28;20047;-72
2023/01/09 01:37:09;;;;;;;9.77;3.20;;;6.80;99.90;;;;;;5113338;28;20043;-72
2023/01/09 01:39:35;;;;;;;10.80;3.22;;;6.70;99.90;;;;;;5114229;28;20077;-71
2023/01/09 01:42:03;;;;;;;9.43;3.20;;;6.80;99.90;;;;;;5113788;28;20384;-71
2023/01/09 01:44:57;;;;;;;6.45;3.05;;;6.80;99.90;;;;;;5095513;28;20116;-71
2023/01/09 01:47:37;;;;;;;7.88;3.17;;;6.70;99.90;;;;;;5113663;28;20054;-73
2023/01/09 01:50:13;;;;;;;7.50;2.90;;;6.90;99.90;;;;;;5113791;28;20080;-72
2023/01/09 01:52:40;;;;;;;5.63;2.67;;;6.90;99.90;;;;;;5112946;28;20063;-71
2023/01/09 01:55:08;;;;;;;9.35;3.78;;;6.80;99.90;;;;;;5095492;28;20071;-70
2023/01/09 01:57:36;;;;;;;8.32;3.65;;;6.40;99.90;;;;;;5113162;28;20511;-73
2023/01/09 02:00:03;;;;;;;9.57;3.45;;;6.60;99.90;;;;;;5095200;28;20063;-72
2023/01/09 02:02:31;;;;;;;10.05;3.30;;;7.00;99.90;;;;;;5113395;28;20050;-72
2023/01/09 02:04:59;;;;;;;8.02;2.80;;;6.80;99.90;;;;;;5095092;28;20055;-71
2023/01/09 02:07:25;;;;;;;10.73;3.58;;;6.80;99.90;;;;;;5113005;28;20051;-71
2023/01/09 02:09:52;;;;;;;8.75;3.47;;;6.50;99.90;;;;;;5113302;28;20051;-72
2023/01/09 02:12:26;;;;;;;8.15;3.40;;;6.50;99.90;;;;;;5094879;28;20048;-71
2023/01/09 02:15:00;;;;;;;6.97;3.25;;;6.50;99.90;;;;;;5113298;28;20047;-71
2023/01/09 02:17:55;;;;;;;9.30;3.70;;;6.50;99.90;;;;;;5113123;28;20047;-72
2023/01/09 02:20:24;;;;;;;10.10;3.33;;;6.60;99.90;;;;;;5094972;28;20479;-72
2023/01/09 02:22:49;;;;;;;7.30;3.55;;;6.40;99.90;;;;;;5112800;28;20050;-72
2023/01/09 02:25:55;;;;;;;13.02;3.67;;;6.40;99.90;;;;;;5094865;28;20047;-73
2023/01/09 02:28:55;;;;;;;14.50;3.85;;;6.10;99.90;;;;;;5094135;28;20112;-72
2023/01/09 02:31:32;;;;;;;8.73;3.70;;;5.90;99.90;;;;;;5094779;28;20051;-72
2023/01/09 02:34:13;;;;;;;11.30;4.00;;;;;;;;;;5112942;28;20066;-71
2023/01/09 02:37:01;;;;;;;8.50;4.03;;;6.00;99.90;;;;;;5112545;28;20059;-71
2023/01/09 02:39:32;;;;;;;10.93;3.83;;;5.90;99.90;;;;;;5094718;28;20143;-72
2023/01/09 02:42:16;;;;;;;8.82;3.72;;;5.70;99.90;;;;;;5112704;28;20035;-71
2023/01/09 02:44:43;;;;;;;14.55;3.70;;;6.00;99.90;;;;;;5112714;28;20048;-71
2023/01/09 02:47:15;;;;;;;13.23;3.65;;;5.90;99.90;;;;;;5112590;28;20062;-72
2023/01/09 02:49:45;;;;;;;10.98;3.38;;;5.70;99.90;;;;;;5112017;28;20047;-71
2023/01/09 02:52:17;;;;;;;11.95;3.83;;;;;;;;;;5112442;28;20102;-71
2023/01/09 02:54:42;;;;;;;9.93;3.10;;;5.50;99.90;;;;;;5094566;28;20051;-71
2023/01/09 02:57:27;;;;;;;10.73;3.60;;;5.80;99.90;;;;;;5112495;28;20040;-71
2023/01/09 02:59:59;;;;;;;9.88;3.75;;;5.80;99.90;;;;;;5112739;28;20127;-71
2023/01/09 03:02:49;;;;;;;11.13;3.90;;;5.40;99.90;;;;;;5112662;28;20043;-71
2023/01/09 03:05:18;;;;;;;8.55;3.75;;;5.20;99.90;;;;;;5112139;28;20048;-71
2023/01/09 03:07:52;;;;;;;10.85;3.55;;;5.30;99.90;;;;;;5112717;28;20048;-71
2023/01/09 03:10:31;;;;;;;9.20;3.50;;;5.70;99.90;;;;;;5094324;28;20060;-71
2023/01/09 03:13:00;;;;;;;13.43;3.50;;;5.50;99.90;;;;;;5094127;28;20067;-72
2023/01/09 03:15:31;;;;;;;10.40;3.88;;;5.20;99.90;;;;;;5112209;28;20043;-71
2023/01/09 03:17:57;;;;;;;12.07;3.90;;;;;;;;;;5112257;28;20051;-71
2023/01/09 03:20:26;;;;;;;15.60;4.40;;;4.90;99.90;;;;;;5111895;28;20044;-71
2023/01/09 03:22:57;;;;;;;15.23;4.60;;;5.00;99.90;;;;;;5112202;28;20483;-71
2023/01/09 03:25:24;;;;;;;16.10;4.70;;;5.00;99.90;;;;;;5093989;28;20059;-72
2023/01/09 03:27:58;;;;;;;11.48;4.18;;;5.10;99.90;;;;;;5112208;28;20082;-71
2023/01/09 03:30:26;;;;;;;10.35;3.97;;;;;;;;;;5112106;28;20120;-71
2023/01/09 03:32:51;;;;;;;12.18;4.20;;;5.10;99.90;;;;;;5093818;28;20046;-72
2023/01/09 03:35:17;;;;;;;12.73;4.60;;;4.90;99.90;;;;;;5111813;28;20130;-72
2023/01/09 03:37:43;;;;;;;11.48;4.25;;;5.20;99.90;;;;;;5093739;28;20044;-72
2023/01/09 03:40:09;;;;;;;10.25;4.45;;;5.00;99.90;;;;;;5112951;28;20051;-72
2023/01/09 03:42:35;;;;;;;;;;;4.80;99.90;;;;;;5098279;28;20040;-72
2023/01/09 03:45:00;;;;;;;10.35;4.13;;;5.00;99.90;;;;;;5115776;28;19926;-71
2023/01/09 03:47:26;;;;;;;11.52;4.13;;;4.70;99.90;;;;;;5097622;28;20055;-72
2023/01/09 03:49:52;;;;;;;11.95;4.20;;;4.70;99.90;;;;;;5116053;28;20050;-71
2023/01/09 03:52:17;;;;;;;11.65;4.32;;;5.00;99.90;;;;;;5115692;28;20584;-71
2023/01/09 03:54:43;;;;;;;13.20;4.45;;;5.10;99.90;;;;;;5115892;28;20101;-72
2023/01/09 03:57:09;;;;;;;11.20;4.38;;;4.90;99.90;;;;;;5097788;28;20796;-71
2023/01/09 03:59:35;;;;;;;17.77;4.50;;;4.80;99.90;;;;;;5115835;28;20066;-71
2023/01/09 04:02:00;;;;;;;17.48;4.50;;;4.90;99.90;;;;;;5115189;28;20046;-71
2023/01/09 04:04:26;;;;;;;13.50;4.32;;;4.90;99.90;;;;;;5115628;28;20130;-72
2023/01/09 04:06:52;;;;;;;12.70;4.40;;;4.90;99.90;;;;;;5097336;28;20063;-72
2023/01/09 04:09:17;;;;;;;13.27;4.22;;;4.90;99.90;;;;;;5115583;28;20054;-72
2023/01/09 04:11:43;;;;;;;15.70;4.22;;;4.80;99.90;;;;;;5115402;28;20048;-72
2023/01/09 04:14:09;;;;;;;13.32;4.15;;;4.80;99.90;;;;;;5097296;28;20044;-72
2023/01/09 04:16:34;;;;;;;16.23;4.35;;;5.00;99.90;;;;;;5097182;28;20484;-71
2023/01/09 04:19:00;;;;;;;16.23;4.60;;;4.80;99.90;;;;;;5115548;28;20695;-72
2023/01/09 04:21:26;;;;;;;14.35;4.25;;;4.50;99.90;;;;;;5115373;28;20043;-71
2023/01/09 04:23:52;;;;;;;11.45;4.30;;;4.80;99.90;;;;;;5115434;28;20043;-71
2023/01/09 04:26:18;;;;;;;9.48;4.43;;;;;;;;;;5115008;28;20044;-72
2023/01/09 04:28:43;;;;;;;15.02;4.53;;;4.70;99.90;;;;;;5097207;28;20055;-72
2023/01/09 04:31:09;;;;;;;11.18;4.75;;;5.10;99.90;;;;;;5114832;28;20472;-72
2023/01/09 04:33:35;;;;;;;14.15;4.43;;;4.70;99.90;;;;;;5080231;28;20356;-72
2023/01/09 04:36:00;;;;;;;20.95;4.93;;;4.60;99.90;;;;;;5115145;28;20047;-71
2023/01/09 04:38:26;;;;;;;13.38;4.78;;;4.50;99.90;;;;;;5079888;28;20079;-71
2023/01/09 04:40:52;;;;;;;15.77;5.20;;;4.70;99.90;;;;;;5114990;28;20100;-72
2023/01/09 04:43:18;;;;;;;10.02;4.78;;;4.70;99.90;;;;;;5114934;28;20066;-72
2023/01/09 04:45:44;;;;;;;10.68;4.72;;;5.00;99.90;;;;;;5114645;28;20048;-71
2023/01/09 04:48:10;;;;;;;13.15;4.97;;;;;;;;;;5096832;28;20134;-70
2023/01/09 04:50:36;;;;;;;21.55;5.47;;;;;;;;;;5114826;28;20057;-71
2023/01/09 04:53:03;;;;;;;17.02;5.97;;;;;;;;;;5095346;28;20052;-71
2023/01/09 04:55:28;;;;;;;;;;;5.00;99.90;;;;;;5115258;28;20059;-72
2023/01/09 04:57:54;;;;;;;21.30;6.30;;;4.70;99.90;;;;;;5096927;28;19973;-71
2023/01/09 05:00:20;;;;;;;11.15;6.05;;;4.70;99.90;;;;;;5114466;28;20048;-71
2023/01/09 05:02:45;;;;;;;15.55;5.93;;;4.90;99.90;;;;;;5114558;28;20047;-71
2023/01/09 05:05:11;;;;;;;18.17;6.90;;;4.90;99.90;;;;;;5114614;28;20052;-71
2023/01/09 05:07:37;;;;;;;16.05;5.60;;;4.80;99.90;;;;;;5114420;28;20470;-71
2023/01/09 05:10:04;;;;;;;18.13;5.63;;;5.10;99.90;;;;;;5114377;28;20054;-71
2023/01/09 05:12:30;;;;;;;19.27;5.80;;;4.60;99.90;;;;;;5113918;28;20048;-71
2023/01/09 05:14:56;;;;;;;18.02;6.18;;;4.60;99.90;;;;;;5113842;28;20044;-71
2023/01/09 05:17:23;;;;;;;13.15;5.63;;;4.60;99.90;;;;;;5079719;28;20051;-71
2023/01/09 05:19:49;;;;;;;17.70;6.18;;;;;;;;;;5114306;28;20043;-71
2023/01/09 05:22:14;;;;;;;17.67;6.30;;;4.50;99.90;;;;;;5096131;28;20066;-72
2023/01/09 05:24:40;;;;;;;12.10;6.03;;;4.60;99.90;;;;;;5114158;28;20047;-72
2023/01/09 05:27:06;;;;;;;13.40;6.60;;;;;;;;;;5079264;28;20043;-72
2023/01/09 05:29:32;;;;;;;18.45;6.43;;;4.40;99.90;;;;;;5095816;28;20055;-71
2023/01/09 05:31:58;;;;;;;17.20;6.82;;;4.70;99.90;;;;;;5114008;28;20042;-71
2023/01/09 05:34:23;;;;;;;21.15;7.03;;;4.50;99.90;;;;;;5114004;28;20465;-72
2023/01/09 05:36:49;;;;;;;24.50;7.20;;;4.60;99.90;;;;;;5113893;28;20119;-71
2023/01/09 05:39:15;;;;;;;19.85;7.20;;;;;;;;;;5095680;28;20059;-71
2023/01/09 05:41:41;;;;;;;22.55;7.80;;;4.40;99.90;;;;;;5113847;28;20040;-71
2023/01/09 05:44:07;;;;;;;17.20;7.20;;;;;;;;;;5095563;28;20039;-71
2023/01/09 05:46:33;;;;;;;19.10;7.75;;;4.80;99.90;;;;;;5113719;28;20051;-71
2023/01/09 05:48:59;;;;;;;19.52;7.38;;;4.60;99.90;;;;;;5113669;28;20126;-73
2023/01/09 05:51:24;;;;;;;17.85;8.07;;;4.60;99.90;;;;;;5113359;28;20564;-72
2023/01/09 05:53:50;;;;;;;18.83;8.07;;;4.50;99.90;;;;;;5113660;28;20058;-71
2023/01/09 05:56:16;;;;;;;19.80;9.10;;;;;;;;;;5095559;28;20047;-72
2023/01/09 05:58:42;;;;;;;;;;;4.70;99.90;;;;;;5113621;28;20048;-71
2023/01/09 06:01:08;;;;;;;19.45;9.07;;;;;;;;;;5113438;28;19920;-72
2023/01/09 06:03:34;;;;;;;22.25;9.77;;;5.20;99.90;;;;;;5113252;28;20099;-71
2023/01/09 06:06:00;;;;;;;23.33;10.52;;;;;;;;;;5113304;28;20083;-72
2023/01/09 06:08:26;;;;;;;26.48;10.75;;;4.70;99.90;;;;;;5113257;28;20047;-71
2023/01/09 06:10:51;;;;;;;26.88;11.15;;;5.00;99.90;;;;;;5113265;28;20055;-71
2023/01/09 06:13:17;;;;;;;26.08;12.00;;;4.90;99.90;;;;;;5094644;28;20542;-71
2023/01/09 06:15:43;;;;;;;27.85;12.73;;;5.20;99.90;;;;;;5113103;28;20051;-72
2023/01/09 06:18:09;;;;;;;23.10;12.20;;;;;;;;;;5113128;28;20062;-71
2023/01/09 06:20:34;;;;;;;28.90;13.85;;;5.20;99.90;;;;;;5113063;28;20052;-72
2023/01/09 06:23:00;;;;;;;31.85;13.57;;;5.20;99.90;;;;;;5113319;28;20127;-71
2023/01/09 06:25:26;;;;;;;34.35;15.02;;;5.10;99.90;;;;;;5112977;28;20090;-71
2023/01/09 06:27:51;;;;;;;30.90;14.60;;;5.40;99.90;;;;;;5112687;28;20039;-71
2023/01/09 06:30:18;;;;;;;31.33;15.65;;;5.20;99.90;;;;;;5061287;28;20054;-72
2023/01/09 06:32:48;;;;;;;33.05;15.95;;;5.20;99.90;;;;;;5112459;28;20492;-73
2023/01/09 06:35:14;;;;;;;33.63;17.88;;;5.80;99.90;;;;;;5112799;28;20055;-71
2023/01/09 06:37:40;;;;;;;38.83;18.17;;;5.70;99.90;;;;;;5094596;28;20130;-71
2023/01/09 06:40:06;;;;;;;39.28;17.42;;;5.50;99.90;;;;;;5112857;28;20458;-71
2023/01/09 06:42:31;;;;;;;39.03;17.85;;;5.40;99.90;;;;;;5112410;28;20055;-71
2023/01/09 06:44:57;;;;;;;40.22;18.27;;;5.40;99.90;;;;;;5112650;28;20051;-71
2023/01/09 06:47:23;;;;;;;31.92;17.27;;;;;;;;;;5094727;28;20130;-72
2023/01/09 06:49:49;;;;;;;38.92;20.27;;;5.80;99.90;;;;;;5112905;28;20046;-72
2023/01/09 06:52:15;;;;;;;38.75;18.73;;;;;;;;;;5112248;28;20376;-72
2023/01/09 06:54:41;;;;;;;41.17;19.77;;;5.60;99.90;;;;;;5112490;28;20055;-72
2023/01/09 07:03:47;;;;;;;44.90;22.50;;;;;;;;;;5107216;27;1327738;-72
2023/01/09 07:06:13;;;;;;;;;;;5.60;99.90;;;;;;5112591;28;20051;-72
2023/01/09 07:08:39;;;;;;;46.70;23.50;;;5.60;99.90;;;;;;5130037;27;19926;-72
2023/01/09 07:11:05;;;;;;;42.05;23.38;;;5.30;99.90;;;;;;5111696;28;20058;-72
2023/01/09 07:13:31;;;;;;;41.63;22.73;;;5.40;99.90;;;;;;5130118;28;20047;-73
2023/01/09 07:15:56;;;;;;;50.88;24.23;;;5.80;99.90;;;;;;5111859;28;20383;-72
2023/01/09 07:18:22;;;;;;;50.60;23.77;;;5.60;99.90;;;;;;5111867;28;20044;-72
2023/01/09 07:20:48;;;;;;;43.88;22.92;;;5.60;99.90;;;;;;5111683;28;20055;-72
2023/01/09 07:23:14;;;;;;;42.45;23.90;;;5.40;99.90;;;;;;5129826;28;20043;-73
2023/01/09 07:25:41;;;;;;;40.28;23.40;;;5.50;99.90;;;;;;5111402;28;20066;-72
2023/01/09 07:28:07;;;;;;;41.30;23.27;;;5.50;99.90;;;;;;5129868;28;20133;-72
2023/01/09 07:30:33;;;;;;;40.10;22.90;;;5.70;99.90;;;;;;5129358;28;20052;-73
2023/01/09 07:32:58;;;;;;;37.33;21.35;;;5.70;99.90;;;;;;5103337;28;20044;-74
2023/01/09 07:35:24;;;;;;;42.08;22.23;;;5.70;99.90;;;;;;5093892;28;20158;-72
2023/01/09 07:37:50;;;;;;;42.38;21.10;;;5.70;99.90;;;;;;5101470;28;20047;-73
2023/01/09 07:40:16;;;;;;;46.30;21.20;;;5.80;99.90;;;;;;5107636;28;20105;-72
2023/01/09 07:42:41;;;;;;;37.03;20.90;;;5.90;99.90;;;;;;5108374;28;20090;-73
2023/01/09 07:45:08;;;;;;;41.53;21.65;;;5.80;99.90;;;;;;5090363;28;20062;-73
2023/01/09 07:47:33;;;;;;;;;;;6.00;99.90;;;;;;5090122;28;20039;-73
2023/01/09 07:49:59;;;;;;;32.53;19.73;;;5.70;99.90;;;;;;5108271;28;19985;-73
2023/01/09 07:52:26;;;;;;;36.60;19.48;;;5.50;99.90;;;;;;5090111;28;20046;-73
2023/01/09 07:54:52;;;;;;;40.15;19.52;;;5.70;99.90;;;;;;5089431;28;20051;-72
2023/01/09 07:57:18;;;;;;;35.20;18.88;;;5.70;99.90;;;;;;5089780;28;20093;-72
2023/01/09 07:59:43;;;;;;;34.47;17.67;;;5.90;99.90;;;;;;5072983;28;20047;-72
2023/01/09 08:02:09;;;;;;;31.67;18.10;;;6.00;99.90;;;;;;5107231;28;20047;-73
2023/01/09 08:04:35;;;;;;;27.33;15.70;;;5.60;99.90;;;;;;5098824;28;20128;-73
2023/01/09 08:07:02;;;;;;;24.90;15.38;;;5.80;99.90;;;;;;5110598;28;20052;-71
2023/01/09 08:09:28;;;;;;;30.35;15.07;;;5.80;99.90;;;;;;5089157;28;20055;-72
2023/01/09 08:11:54;;;;;;;26.00;14.57;;;5.60;99.90;;;;;;5107767;28;20048;-72
2023/01/09 08:14:19;;;;;;;29.48;15.90;;;5.80;99.90;;;;;;5081096;28;20155;-72
2023/01/09 08:16:45;;;;;;;27.77;14.32;;;5.50;99.90;;;;;;5093844;28;20048;-74
2023/01/09 08:19:11;;;;;;;26.70;14.38;;;5.80;99.90;;;;;;5096143;28;20510;-71
2023/01/09 08:21:38;;;;;;;30.75;14.20;;;5.60;99.90;;;;;;5094286;28;20048;-72
2023/01/09 08:24:04;;;;;;;27.35;13.73;;;5.60;99.90;;;;;;5072136;28;20052;-71
2023/01/09 08:26:30;;;;;;;31.25;13.07;;;6.00;99.90;;;;;;5094174;28;20062;-72
2023/01/09 08:28:55;;;;;;;23.80;12.30;;;5.50;99.90;;;;;;5091835;28;20043;-73
2023/01/09 08:31:21;;;;;;;21.20;13.27;;;5.80;99.90;;;;;;5114128;28;20052;-71
2023/01/09 08:33:47;;;;;;;24.05;13.82;;;5.80;99.90;;;;;;5096228;28;20361;-71
2023/01/09 08:36:12;;;;;;;27.00;14.38;;;5.80;99.90;;;;;;5114403;28;20047;-71
2023/01/09 08:38:38;;;;;;;24.35;13.95;;;5.80;99.90;;;;;;5066153;28;20083;-71
2023/01/09 08:47:04;;;;;;;25.40;13.32;;;5.70;99.90;;;;;;5102596;27;20090;-72
2023/01/09 08:49:19;;;;;;;24.42;11.50;;;5.80;99.90;;;;;;5078811;28;20138;-73
2023/01/09 08:51:45;;;;;;;19.55;10.98;;;5.80;99.90;;;;;;5083368;28;20052;-76
2023/01/09 08:54:10;;;;;;;24.60;12.27;;;5.90;99.90;;;;;;5094272;28;20048;-75
2023/01/09 08:56:36;;;;;;;22.55;11.95;;;6.10;99.90;;;;;;5074922;28;20450;-75
2023/01/09 08:59:02;;;;;;;23.55;11.70;;;5.70;99.90;;;;;;5093065;28;20058;-75
2023/01/09 09:01:27;;;;;;;21.58;11.30;;;5.70;99.90;;;;;;5092659;28;20059;-76
2023/01/09 09:03:54;;;;;;;25.40;12.43;;;5.80;99.90;;;;;;5093284;28;20091;-76
2023/01/09 09:06:19;;;;;;;20.90;11.95;;;5.80;99.90;;;;;;5075431;28;20128;-76
2023/01/09 09:08:45;;;;;;;21.67;11.77;;;5.70;99.90;;;;;;5074345;28;20583;-75
2023/01/09 09:11:11;;;;;;;21.90;12.48;;;5.50;99.90;;;;;;5092842;28;20052;-75
2023/01/09 09:13:36;;;;;;;23.50;13.15;;;5.70;99.90;;;;;;5093148;28;20122;-76
2023/01/09 09:16:02;;;;;;;20.27;12.07;;;5.80;99.90;;;;;;5092523;28;20479;-75
2023/01/09 09:18:28;;;;;;;25.15;13.13;;;5.60;99.90;;;;;;5075228;28;20047;-76
2023/01/09 09:20:53;;;;;;;27.52;13.18;;;5.80;99.90;;;;;;5093150;28;20131;-74
2023/01/09 09:23:21;;;;;;;25.00;12.70;;;5.50;99.90;;;;;;5073942;28;20047;-75
2023/01/09 09:25:47;;;;;;;25.25;13.07;;;6.00;99.90;;;;;;5073547;28;20052;-74
2023/01/09 09:28:12;;;;;;;27.63;12.93;;;5.70;99.90;;;;;;5078043;28;20040;-72
2023/01/09 09:30:38;;;;;;;25.67;12.70;;;6.00;99.90;;;;;;5092499;28;20048;-73
2023/01/09 09:33:04;;;;;;;20.65;12.00;;;5.80;99.90;;;;;;5081448;28;20165;-74
2023/01/09 09:35:32;;;;;;;22.65;12.40;;;5.90;99.90;;;;;;5092753;28;20048;-72
2023/01/09 09:38:00;;;;;;;22.50;11.23;;;5.90;99.90;;;;;;5106538;28;20032;-72
2023/01/09 09:40:41;;;;;;;24.15;11.43;;;6.00;99.90;;;;;;5090763;28;20048;-71
2023/01/09 09:46:04;;;;;;;;;;;6.10;99.90;;;;;;5090578;28;20503;-72
2023/01/09 09:49:10;;;;;;;20.67;9.82;;;6.20;99.90;;;;;;5072644;28;19934;-71
2023/01/09 09:51:56;;;;;;;22.30;10.57;;;6.10;99.90;;;;;;5063426;28;20135;-72
2023/01/09 09:54:44;;;;;;;22.38;10.23;;;6.00;99.90;;;;;;5092142;28;20044;-72
2023/01/09 09:57:16;;;;;;;19.55;9.98;;;6.30;99.90;;;;;;5086703;28;20135;-72
2023/01/09 09:59:43;;;;;;;24.30;9.98;;;6.30;99.90;;;;;;5095342;28;20123;-72
2023/01/09 10:02:09;;;;;;;18.52;9.30;;;;;;;;;;5091123;28;20047;-72
2023/01/09 10:04:43;;;;;;;19.77;9.77;;;6.00;99.90;;;;;;5092638;28;20391;-71
2023/01/09 10:07:27;;;;;;;18.55;8.75;;;6.40;99.90;;;;;;5074787;28;20365;-72
2023/01/09 10:10:05;;;;;;;20.60;8.82;;;6.50;99.90;;;;;;5092593;28;20044;-72
2023/01/09 10:12:43;;;;;;;14.50;8.80;;;6.50;99.90;;;;;;5092600;28;20044;-72
2023/01/09 10:15:18;;;;;;;16.55;9.35;;;6.30;99.90;;;;;;5092701;28;20404;-72
2023/01/09 10:18:05;;;;;;;17.65;8.93;;;6.60;99.90;;;;;;5092644;28;20108;-72
2023/01/09 10:20:34;;;;;;;19.13;8.93;;;6.60;99.90;;;;;;5074146;28;20044;-71
2023/01/09 10:23:15;;;;;;;19.15;7.97;;;6.60;99.90;;;;;;5092397;28;20097;-71
2023/01/09 10:25:46;;;;;;;13.23;8.00;;;6.30;99.90;;;;;;5074554;28;20086;-71
2023/01/09 10:28:35;;;;;;;16.70;7.65;;;6.80;99.90;;;;;;5092506;28;20048;-72
2023/01/09 10:31:07;;;;;;;16.15;8.30;;;6.70;99.90;;;;;;5092546;28;20051;-71
2023/01/09 10:33:41;;;;;;;16.85;8.60;;;6.90;99.90;;;;;;5092166;28;20048;-71
2023/01/09 10:36:32;;;;;;;17.38;8.45;;;6.70;99.90;;;;;;5092621;28;20079;-71
2023/01/09 10:39:03;;;;;;;15.43;8.23;;;6.90;99.90;;;;;;5092409;28;20044;-71
2023/01/09 10:41:40;;;;;;;17.48;8.15;;;6.70;99.90;;;;;;5092384;28;20117;-71
2023/01/09 10:44:32;;;;;;;17.83;8.40;;;6.70;99.90;;;;;;5092296;28;20115;-71
2023/01/09 10:47:00;;;;;;;15.75;8.00;;;6.70;99.90;;;;;;5074143;28;20411;-71
2023/01/09 10:49:26;;;;;;;19.90;8.77;;;6.70;99.90;;;;;;5073763;28;20457;-71
2023/01/09 10:52:12;;;;;;;13.98;7.88;;;6.80;99.90;;;;;;5092130;28;20048;-71
2023/01/09 10:54:50;;;;;;;15.70;8.17;;;6.60;99.90;;;;;;5092116;28;20158;-72
2023/01/09 10:57:27;;;;;;;15.02;8.07;;;6.70;99.90;;;;;;5092125;28;20066;-71
2023/01/09 10:59:55;;;;;;;18.92;8.98;;;7.10;99.90;;;;;;5092109;28;20801;-71
2023/01/09 11:02:29;;;;;;;15.70;7.88;;;6.90;99.90;;;;;;5053467;28;20053;-72
2023/01/09 11:04:55;;;;;;;21.25;8.52;;;7.00;99.90;;;;;;5092096;28;20377;-71
2023/01/09 11:07:25;;;;;;;18.30;8.20;;;6.80;99.90;;;;;;5091959;28;20149;-71
2023/01/09 11:09:55;;;;;;;16.40;7.38;;;7.00;99.90;;;;;;5092011;28;20054;-72
2023/01/09 11:12:26;;;;;;;21.90;7.32;;;7.40;99.90;;;;;;5091896;28;20396;-71
2023/01/09 11:14:52;;;;;;;16.13;7.82;;;6.80;99.90;;;;;;5091360;28;20055;-77
2023/01/09 11:17:24;;;;;;;13.90;7.53;;;7.30;99.90;;;;;;5107853;28;20146;-72
2023/01/09 11:20:21;;;;;;;12.82;7.15;;;7.00;99.90;;;;;;5113740;28;20549;-73
2023/01/09 11:22:53;;;;;;;15.27;8.05;;;7.20;99.90;;;;;;5109453;28;20082;-76
2023/01/09 11:25:22;;;;;;;16.98;7.97;;;7.30;99.90;;;;;;5057041;28;20108;-74
2023/01/09 11:28:05;;;;;;;14.75;8.02;;;7.30;99.90;;;;;;5083763;28;20051;-76
2023/01/09 11:30:35;;;;;;;13.98;7.28;;;7.20;99.90;;;;;;5091192;28;20055;-72
2023/01/09 11:33:17;;;;;;;14.68;7.88;;;7.10;99.90;;;;;;5091189;28;20467;-72
2023/01/09 11:36:23;;;;;;;15.63;7.95;;;7.50;99.90;;;;;;5091570;28;20055;-72
2023/01/09 11:38:54;;;;;;;17.55;7.65;;;7.50;99.90;;;;;;4966871;28;20085;-71
2023/01/09 11:41:29;;;;;;;17.35;7.38;;;7.70;99.90;;;;;;5079759;28;20067;-71
2023/01/09 11:43:57;;;;;;;15.00;8.02;;;7.40;99.90;;;;;;5091541;28;20036;-73
2023/01/09 11:46:32;;;;;;;14.45;7.80;;;7.50;99.90;;;;;;5072786;28;20056;-72
2023/01/09 11:48:59;;;;;;;19.13;8.63;;;7.50;99.90;;;;;;5092451;28;20048;-73
2023/01/09 11:51:27;;;;;;;17.40;7.63;;;7.50;99.90;;;;;;5077050;28;20052;-71
2023/01/09 11:54:05;;;;;;;15.32;7.68;;;7.40;99.90;;;;;;5076938;28;20081;-73
2023/01/09 11:56:31;;;;;;;16.95;7.88;;;7.60;99.90;;;;;;5095165;28;20040;-71
2023/01/09 11:58:58;;;;;;;16.35;8.90;;;7.30;99.90;;;;;;5094771;28;20656;-72
2023/01/09 12:01:39;;;;;;;14.50;8.05;;;7.40;99.90;;;;;;5094197;28;20130;-71
2023/01/09 12:04:32;;;;;;;17.38;9.00;;;7.20;99.90;;;;;;5076546;28;20044;-70
2023/01/09 12:07:20;;;;;;;14.02;7.88;;;7.50;99.90;;;;;;5094902;28;20062;-70
2023/01/09 12:10:10;;;;;;;12.93;7.63;;;7.50;99.90;;;;;;5060513;28;20063;-70
2023/01/09 12:12:57;;;;;;;16.27;7.60;;;7.50;99.90;;;;;;5095014;28;20052;-70
2023/01/09 12:15:34;;;;;;;28.77;8.93;;;7.60;99.90;;;;;;5104969;28;20051;-71
2023/01/09 12:18:32;;;;;;;14.45;8.13;;;7.20;99.90;;;;;;5128757;27;20107;-71
2023/01/09 12:21:25;;;;;;;16.70;7.72;;;7.70;99.90;;;;;;5114575;27;20075;-68
2023/01/09 12:24:12;;;;;;;13.73;7.85;;;7.60;99.90;;;;;;5108837;28;20047;-68
2023/01/09 12:27:05;;;;;;;18.55;7.97;;;7.50;99.90;;;;;;5110363;28;20040;-68
2023/01/09 12:30:00;;;;;;;13.20;7.38;;;7.50;99.90;;;;;;5112442;28;20134;-68
2023/01/09 12:32:51;;;;;;;16.52;7.88;;;7.30;99.90;;;;;;5112638;28;20570;-69
2023/01/09 12:36:01;;;;;;;14.18;8.15;;;7.50;99.90;;;;;;5095226;28;20100;-68
2023/01/09 12:38:40;;;;;;;13.07;8.00;;;7.50;99.90;;;;;;5065764;28;20515;-67
2023/01/09 12:41:16;;;;;;;14.13;8.48;;;7.50;99.90;;;;;;5114767;28;20079;-68
2023/01/09 12:44:21;;;;;;;20.40;8.73;;;7.40;99.90;;;;;;5114872;28;20048;-67
2023/01/09 12:47:25;;;;;;;18.27;8.07;;;7.60;99.90;;;;;;5095026;28;20055;-68
2023/01/09 12:50:25;;;;;;;14.23;8.43;;;7.40;99.90;;;;;;5114750;28;20048;-68
2023/01/09 12:53:10;;;;;;;15.80;8.52;;;7.40;99.90;;;;;;5114514;28;20046;-68
2023/01/09 12:55:41;;;;;;;14.10;8.30;;;7.40;99.90;;;;;;5114361;28;20047;-68
2023/01/09 12:58:26;;;;;;;18.48;9.07;;;7.40;99.90;;;;;;5114674;28;20395;-68
2023/01/09 13:00:53;;;;;;;15.77;9.13;;;7.60;99.90;;;;;;5114084;28;20051;-68
2023/01/09 13:03:22;;;;;;;15.73;8.45;;;7.60;99.90;;;;;;5114028;28;20146;-68
2023/01/09 13:05:50;;;;;;;17.88;8.95;;;7.40;99.90;;;;;;5114379;28;20052;-68
2023/01/09 13:08:34;;;;;;;22.52;9.43;;;7.40;99.90;;;;;;5096325;28;20109;-72
2023/01/09 13:11:14;;;;;;;18.13;9.68;;;7.60;99.90;;;;;;5114077;28;20507;-68
2023/01/09 13:13:54;;;;;;;17.23;8.98;;;7.50;99.90;;;;;;5095817;28;20048;-68
2023/01/09 13:16:29;;;;;;;17.02;8.70;;;7.60;99.90;;;;;;5114209;28;20047;-68
2023/01/09 13:19:02;;;;;;;13.65;7.57;;;7.70;99.90;;;;;;5114172;28;20040;-67
2023/01/09 13:21:28;;;;;;;13.73;7.70;;;7.70;99.90;;;;;;5114148;28;20078;-68
2023/01/09 13:24:16;;;;;;;17.40;7.60;;;7.80;99.90;;;;;;5113979;28;20082;-68
2023/01/09 13:26:46;;;;;;;13.50;7.03;;;7.90;99.90;;;;;;5095850;28;20162;-68
2023/01/09 13:29:20;;;;;;;11.70;6.72;;;7.60;99.90;;;;;;5113666;28;20086;-68